createdAt,value
2023-01-08T00:10:01.327Z,9.50
2023-01-08T00:20:01.044Z,9.60
2023-01-08T00:30:01.022Z,8.80
2023-01-08T00:40:01.184Z,9.10
2023-01-08T00:50:01.446Z,8.60
2023-01-08T01:00:01.637Z,8.20
2023-01-08T01:10:01.508Z,11.10
2023-01-08T01:20:01.139Z,9.40
2023-01-08T01:30:01.150Z,9.80
2023-01-08T01:40:01.033Z,8.70
2023-01-08T01:50:01.175Z,9.90
2023-01-08T02:10:01.152Z,9.90
2023-01-08T02:20:00.435Z,8.40
2023-01-08T02:30:01.086Z,10.10
2023-01-08T02:50:01.229Z,9.50
2023-01-08T03:00:01.314Z,11.80
2023-01-08T03:10:01.228Z,11.70
2023-01-08T03:30:01.286Z,11.00
2023-01-08T03:40:01.576Z,12.90
2023-01-08T03:50:01.037Z,11.90
2023-01-08T04:10:01.893Z,14.00
2023-01-08T04:20:01.191Z,12.60
2023-01-08T04:30:02.508Z,13.40
2023-01-08T04:40:01.964Z,13.50
2023-01-08T04:50:01.777Z,13.00
2023-01-08T05:10:01.863Z,11.60
2023-01-08T05:30:01.006Z,12.50
2023-01-08T05:50:00.953Z,12.00
2023-01-08T06:10:01.004Z,13.40
2023-01-08T06:20:02.005Z,13.20
2023-01-08T06:30:02.773Z,10.80
2023-01-08T06:50:01.051Z,11.30
2023-01-08T07:00:01.102Z,10.40
2023-01-08T07:10:01.253Z,10.30
2023-01-08T07:30:01.482Z,9.10
2023-01-08T07:50:01.477Z,10.20
2023-01-08T08:10:01.885Z,8.80
2023-01-08T08:30:02.208Z,10.40
2023-01-08T08:50:01.242Z,11.10
2023-01-08T09:00:01.456Z,12.30
2023-01-08T09:10:02.299Z,11.60
2023-01-08T09:20:01.171Z,9.20
2023-01-08T09:30:01.107Z,10.90
2023-01-08T09:40:02.883Z,8.80
2023-01-08T09:50:01.025Z,9.50
2023-01-08T10:00:01.215Z,10.70
2023-01-08T10:10:01.083Z,14.40
2023-01-08T10:20:01.176Z,9.90
2023-01-08T10:30:01.091Z,8.40
2023-01-08T10:50:01.049Z,3.70
2023-01-08T11:00:01.364Z,3.90
2023-01-08T11:10:01.056Z,3.50
2023-01-08T11:20:01.244Z,3.40
2023-01-08T11:30:01.300Z,2.80
2023-01-08T11:40:00.289Z,5.50
2023-01-08T11:50:02.969Z,6.10
2023-01-08T12:00:02.955Z,14.00
2023-01-08T12:10:01.287Z,27.90
2023-01-08T12:20:01.860Z,21.80
2023-01-08T12:30:01.239Z,22.80
2023-01-08T12:40:01.048Z,16.70
2023-01-08T12:50:00.282Z,10.80
2023-01-08T13:00:01.325Z,8.90
2023-01-08T13:10:01.476Z,8.10
2023-01-08T13:20:02.564Z,7.10
2023-01-08T13:30:01.320Z,19.10
2023-01-08T13:40:00.277Z,12.80
2023-01-08T13:50:01.112Z,8.20
2023-01-08T14:00:01.219Z,15.90
2023-01-08T14:10:01.164Z,8.10
2023-01-08T14:20:00.973Z,6.00
2023-01-08T14:30:01.010Z,17.00
2023-01-08T14:40:01.225Z,9.10
2023-01-08T14:50:01.084Z,7.80
2023-01-08T15:00:02.648Z,7.70
2023-01-08T15:10:02.643Z,4.80
2023-01-08T15:20:02.116Z,3.50
2023-01-08T15:30:01.514Z,3.60
2023-01-08T15:40:00.993Z,3.50
2023-01-08T15:50:05.200Z,3.30
2023-01-08T16:00:02.839Z,3.40
2023-01-08T16:10:01.089Z,4.00
2023-01-08T16:20:00.298Z,4.30
2023-01-08T16:30:03.012Z,2.70
2023-01-08T16:40:01.128Z,3.40
2023-01-08T16:50:01.116Z,3.60
2023-01-08T17:00:01.045Z,4.20
2023-01-08T17:10:02.260Z,5.00
2023-01-08T17:20:01.324Z,5.20
2023-01-08T17:30:01.409Z,6.50
2023-01-08T17:40:01.455Z,6.40
2023-01-08T17:50:01.609Z,4.30
2023-01-08T18:00:04.144Z,8.80
2023-01-08T18:10:01.232Z,2.50
2023-01-08T18:20:01.074Z,3.30
2023-01-08T18:30:01.045Z,2.80
2023-01-08T18:40:00.311Z,4.50
2023-01-08T18:50:01.064Z,3.00
2023-01-08T19:00:02.252Z,4.60
2023-01-08T19:10:01.034Z,4.50
2023-01-08T19:20:01.862Z,1.60
2023-01-08T19:30:01.323Z,1.70
2023-01-08T19:40:01.295Z,1.90
2023-01-08T19:50:01.173Z,2.60
2023-01-08T20:00:01.392Z,2.70
2023-01-08T20:10:02.413Z,1.50
2023-01-08T20:20:01.102Z,1.70
2023-01-08T20:30:01.092Z,1.50
2023-01-08T20:40:01.340Z,3.50
2023-01-08T20:50:03.240Z,2.00
2023-01-08T21:00:01.748Z,2.40
2023-01-08T21:10:01.108Z,1.60
2023-01-08T21:20:01.297Z,2.00
2023-01-08T21:30:01.036Z,1.40
2023-01-08T21:40:02.412Z,1.30
2023-01-08T21:50:01.320Z,1.40
2023-01-08T22:00:02.153Z,1.60
2023-01-08T22:10:01.022Z,1.60
2023-01-08T22:20:03.937Z,1.30
2023-01-08T22:30:02.265Z,1.90
2023-01-08T22:40:01.248Z,1.40
2023-01-08T22:50:01.201Z,1.40
2023-01-08T23:00:01.278Z,1.50
2023-01-08T23:10:01.465Z,1.30
2023-01-08T23:20:02.349Z,1.20
2023-01-08T23:30:01.552Z,1.50
2023-01-08T23:40:00.970Z,2.20
2023-01-08T23:50:01.242Z,2.10
